Terminal Aerodrome Forecast
Issued by NWS

Home | Current Version | Previous Version | Text Only | Print | Product List | Glossary On
Versions: 1 2 3 4 5 6 7 8 9 10 11 12 13 14 15 16 17 18 19
000
FTAK31 PAJN 020500
TAFAYA
TAF
PAYA 020520Z 0206/0306 27005KT P6SM BKN010 OVC020
      TEMPO 0206/0210 FEW010 SCT020
     FM021000 00000KT 6SM BR FEW002 BKN010 OVC020
     FM021700 27006KT P6SM SCT100
     FM030400 VRB03KT P6SM SCT100
      AMD LTD TO CLD VIS AND WIND 0206/0210=

USA.gov is the U.S. government's official web portal to all federal, state and local government web resources and services.